Liguria — IRKJ — position and weather

sailwx.info

Track history (hours):
 
Tides and Currents Weather Stations Pressure Air Temp Water Temp Dewpoint Dewpoint Depression Visibility Wind Speed Wind Dir Waves Ship Positions

Liguria

Last reported at 2016-Aug-25 17:33 UTC. Time now 2016-Aug-25 23:46 UTC.
Position N 44°18' E 008°29'.

Length 30 m; draft 4.5 m.

Type: Tug. MMSI: 247228500.

Date/timePositionNaut miles runAvg speedWind from/ knotsBaromVisibWave heightAir tempDewpointWater temp
2016-Aug-25 17:33N 44°18' E 008°29'0 0.0
2016-Aug-25 16:34N 44°18' E 008°29'0 0.0
2016-Aug-25 15:34N 44°18' E 008°29'0 0.0
2016-Aug-25 14:34N 44°18' E 008°29'0 0.0
2016-Aug-25 13:33N 44°18' E 008°29'0 0.0
2016-Aug-25 12:34N 44°18' E 008°29'2 2.0
2016-Aug-25 11:34N 44°17' E 008°28'1 1.3
2016-Aug-25 10:33N 44°16' E 008°27'0 0.0
2016-Aug-25 09:34N 44°16' E 008°27'0 0.2
2016-Aug-25 08:34N 44°16' E 008°27'0 0.0
2016-Aug-25 07:34N 44°16' E 008°27'0 0.0
2016-Aug-25 06:34N 44°16' E 008°27'0 0.2
2016-Aug-25 04:34N 44°16' E 008°27'3 2.9
2016-Aug-25 03:34N 44°18' E 008°29'0 0.0
2016-Aug-25 02:34N 44°18' E 008°29'0 0.0
2016-Aug-23 12:34N 44°18' E 008°29'0 0.0
2016-Aug-23 11:34N 44°18' E 008°29'0 0.0
2016-Aug-23 10:34N 44°18' E 008°29'0 0.0
2016-Aug-23 09:34N 44°18' E 008°29'0 0.0
2016-Aug-23 08:33N 44°18' E 008°29'0 0.0
2016-Aug-23 07:33N 44°18' E 008°29'0 0.0
2016-Aug-23 06:33N 44°18' E 008°29'0 0.0
2016-Aug-23 05:33N 44°18' E 008°29'0 0.0
2016-Aug-23 04:33N 44°18' E 008°29'0 0.0
2016-Aug-23 03:33N 44°19' E 008°29'2 2.3
2016-Aug-23 02:33N 44°17' E 008°28'2 1.5
2016-Aug-23 01:33N 44°18' E 008°29'1 0.7
2016-Aug-23 00:31N 44°18' E 008°29'0 0.0
2016-Aug-22 23:31N 44°18' E 008°29'0 0.0
2016-Aug-22 22:28N 44°18' E 008°29'0 0.0
2016-Aug-22 17:18N 44°18' E 008°29'1 0.7
2016-Aug-22 16:31N 44°19' E 008°30'1 0.5
2016-Aug-22 15:33N 44°18' E 008°29'0 0.0
2016-Aug-22 14:16N 44°18' E 008°29'0 0.0
2016-Aug-22 13:20N 44°18' E 008°29'0 0.0
2016-Aug-22 12:32N 44°18' E 008°29'0 0.0
2016-Aug-22 11:32N 44°18' E 008°29'0 0.0
2016-Aug-22 10:28N 44°18' E 008°29'0 0.0
2016-Aug-22 09:22N 44°18' E 008°29'2 2.8
2016-Aug-22 08:32N 44°17' E 008°28'0 0.1
2016-Aug-22 07:29N 44°16' E 008°28'1 0.9
2016-Aug-22 06:27N 44°16' E 008°28'3 3.1
2016-Aug-22 05:33N 44°18' E 008°30'1 1.0
2016-Aug-22 04:33N 44°19' E 008°31'1 0.9
2016-Aug-22 03:30N 44°18' E 008°29'0 0.0
2016-Aug-22 02:30N 44°18' E 008°29'0 0.0
2016-Aug-22 01:30N 44°18' E 008°29'0 0.0
2016-Aug-22 00:30N 44°18' E 008°29'0 0.0
2016-Aug-21 23:30N 44°18' E 008°29'0 0.0
2016-Aug-21 22:30N 44°18' E 008°29'0 0.0
2016-Aug-21 21:30N 44°18' E 008°29'0 0.0
2016-Aug-21 20:33N 44°18' E 008°29'0 0.0
2016-Aug-21 13:28N 44°18' E 008°29'0 0.0
2016-Aug-21 12:31N 44°18' E 008°29'0 0.0
2016-Aug-21 11:31N 44°18' E 008°29'0 0.0
2016-Aug-21 10:31N 44°18' E 008°29'0 0.0
2016-Aug-21 09:31N 44°18' E 008°29'0 0.0
2016-Aug-21 08:31N 44°18' E 008°29'0 0.0
2016-Aug-21 07:22N 44°18' E 008°29'0 0.0
2016-Aug-21 06:28N 44°18' E 008°29'0 0.0
2016-Aug-21 05:28N 44°18' E 008°29'0 0.0
2016-Aug-21 04:28N 44°18' E 008°29'0 0.0
2016-Aug-20 08:24N 44°18' E 008°29'0 0.0
2016-Aug-20 07:30N 44°18' E 008°29'0 0.0
2016-Aug-20 06:30N 44°18' E 008°29'0 0.0
2016-Aug-20 05:30N 44°18' E 008°29'0 0.0
2016-Aug-20 04:33N 44°18' E 008°29'0 0.0
2016-Aug-20 03:33N 44°18' E 008°29'0 0.0
2016-Aug-20 02:30N 44°18' E 008°29'0 0.0
2016-Aug-20 01:30N 44°18' E 008°29'0 0.0
2016-Aug-20 00:33N 44°18' E 008°29'0 0.0
2016-Aug-19 23:30N 44°18' E 008°29'0 0.0
2016-Aug-19 22:30N 44°18' E 008°29'0 0.0
2016-Aug-19 21:30N 44°18' E 008°29'0 0.0
2016-Aug-19 20:30N 44°18' E 008°29'0 0.0
2016-Aug-19 19:30N 44°18' E 008°29'0 0.0
2016-Aug-19 18:30N 44°18' E 008°29'0 0.0
2016-Aug-19 17:30N 44°18' E 008°29'0 0.0
2016-Aug-19 16:30N 44°18' E 008°29'0 0.5
2016-Aug-19 15:33N 44°19' E 008°30'0 0.1
2016-Aug-19 12:17N 44°18' E 008°29'0 0.0
2016-Aug-19 11:09N 44°18' E 008°29'0 0.0
2016-Aug-19 05:29N 44°18' E 008°29'1 0.9
2016-Aug-19 04:33N 44°19' E 008°30'1 0.1
2016-Aug-18 17:32N 44°18' E 008°29'0 0.0
2016-Aug-18 16:32N 44°18' E 008°29'0 0.0
2016-Aug-18 15:32N 44°18' E 008°29'0 0.0
2016-Aug-18 14:34N 44°19' E 008°29'3 3.1
2016-Aug-18 13:34N 44°16' E 008°27'3 2.9
2016-Aug-18 12:31N 44°18' E 008°29'0 0.0
2016-Aug-18 11:31N 44°18' E 008°29'1 0.5
2016-Aug-18 10:31N 44°19' E 008°30'1 0.5
2016-Aug-18 09:22N 44°18' E 008°29'0 0.0
2016-Aug-18 08:31N 44°18' E 008°29'0 0.0
2016-Aug-18 07:31N 44°18' E 008°29'1 0.7
2016-Aug-18 06:33N 44°19' E 008°30'4 3.6
2016-Aug-18 05:34N 44°16' E 008°27'1 1.1
2016-Aug-18 04:34N 44°17' E 008°28'2 0.3
2016-Aug-17 21:33N 44°18' E 008°29'0 0.0
2016-Aug-17 20:30N 44°18' E 008°29'0 0.0
2016-Aug-17 19:30N 44°18' E 008°29'0 0.0
2016-Aug-17 18:30N 44°18' E 008°29'0 0.0
2016-Aug-17 17:30N 44°18' E 008°29'0 0.0
2016-Aug-17 16:30N 44°18' E 008°29'0 0.0
2016-Aug-17 14:19N 44°18' E 008°29'0 0.0
2016-Aug-17 13:31N 44°18' E 008°29'0 0.0
2016-Aug-17 12:31N 44°18' E 008°29'0 0.0
2016-Aug-17 07:28N 44°18' E 008°29'0 0.0
2016-Aug-17 06:19N 44°18' E 008°29'0 0.0
2016-Aug-17 05:31N 44°18' E 008°29'0 0.0
2016-Aug-17 04:31N 44°18' E 008°29'0 0.0
2016-Aug-17 03:31N 44°18' E 008°29'0 0.0
2016-Aug-17 02:31N 44°18' E 008°29'0 0.0
2016-Aug-17 01:31N 44°18' E 008°29'0 0.0
2016-Aug-17 00:34N 44°18' E 008°29'0 0.0
2016-Aug-16 23:34N 44°18' E 008°29'0 0.0
2016-Aug-16 22:31N 44°18' E 008°29'0 0.0
2016-Aug-16 21:31N 44°18' E 008°29'0 0.0
2016-Aug-16 17:31N 44°18' E 008°29'0 0.0
2016-Aug-16 16:31N 44°18' E 008°29'0 0.0
2016-Aug-16 15:31N 44°18' E 008°29'0 0.0
2016-Aug-16 14:31N 44°18' E 008°29'0 0.0
2016-Aug-16 13:28N 44°18' E 008°29'0 0.0
2016-Aug-16 12:22N 44°18' E 008°29'0 0.0
2016-Aug-16 11:28N 44°18' E 008°29'0 0.0
2016-Aug-16 10:28N 44°18' E 008°29'0 0.0
2016-Aug-16 09:29N 44°18' E 008°29'1 1.0
2016-Aug-16 08:32N 44°19' E 008°31'1 0.5
2016-Aug-16 07:33N 44°19' E 008°30'1 0.2
2016-Aug-16 04:32N 44°18' E 008°29'  
Track history (hours):
 
Tides and Currents Weather Stations Pressure Air Temp Water Temp Dewpoint Dewpoint Depression Visibility Wind Speed Wind Dir Waves Ship Positions

Liguria

Last reported at 2016-Aug-25 17:33 UTC. Time now 2016-Aug-25 23:46 UTC.
Position N 44°18' E 008°29'.

Length 30 m; draft 4.5 m.

Type: Tug. MMSI: 247228500.

Date/timePositionNaut miles runAvg speedWind from/ knotsBaromVisibWave heightAir tempDewpointWater temp
2016-Aug-25 17:33N 44°18' E 008°29'0 0.0
2016-Aug-25 16:34N 44°18' E 008°29'0 0.0
2016-Aug-25 15:34N 44°18' E 008°29'0 0.0
2016-Aug-25 14:34N 44°18' E 008°29'0 0.0
2016-Aug-25 13:33N 44°18' E 008°29'0 0.0
2016-Aug-25 12:34N 44°18' E 008°29'2 2.0
2016-Aug-25 11:34N 44°17' E 008°28'1 1.3
2016-Aug-25 10:33N 44°16' E 008°27'0 0.0
2016-Aug-25 09:34N 44°16' E 008°27'0 0.2
2016-Aug-25 08:34N 44°16' E 008°27'0 0.0
2016-Aug-25 07:34N 44°16' E 008°27'0 0.0
2016-Aug-25 06:34N 44°16' E 008°27'0 0.2
2016-Aug-25 04:34N 44°16' E 008°27'3 2.9
2016-Aug-25 03:34N 44°18' E 008°29'0 0.0
2016-Aug-25 02:34N 44°18' E 008°29'0 0.0
2016-Aug-23 12:34N 44°18' E 008°29'0 0.0
2016-Aug-23 11:34N 44°18' E 008°29'0 0.0
2016-Aug-23 10:34N 44°18' E 008°29'0 0.0
2016-Aug-23 09:34N 44°18' E 008°29'0 0.0
2016-Aug-23 08:33N 44°18' E 008°29'0 0.0
2016-Aug-23 07:33N 44°18' E 008°29'0 0.0
2016-Aug-23 06:33N 44°18' E 008°29'0 0.0
2016-Aug-23 05:33N 44°18' E 008°29'0 0.0
2016-Aug-23 04:33N 44°18' E 008°29'0 0.0
2016-Aug-23 03:33N 44°19' E 008°29'2 2.3
2016-Aug-23 02:33N 44°17' E 008°28'2 1.5
2016-Aug-23 01:33N 44°18' E 008°29'1 0.7
2016-Aug-23 00:31N 44°18' E 008°29'0 0.0
2016-Aug-22 23:31N 44°18' E 008°29'0 0.0
2016-Aug-22 22:28N 44°18' E 008°29'0 0.0
2016-Aug-22 17:18N 44°18' E 008°29'1 0.7
2016-Aug-22 16:31N 44°19' E 008°30'1 0.5
2016-Aug-22 15:33N 44°18' E 008°29'0 0.0
2016-Aug-22 14:16N 44°18' E 008°29'0 0.0
2016-Aug-22 13:20N 44°18' E 008°29'0 0.0
2016-Aug-22 12:32N 44°18' E 008°29'0 0.0
2016-Aug-22 11:32N 44°18' E 008°29'0 0.0
2016-Aug-22 10:28N 44°18' E 008°29'0 0.0
2016-Aug-22 09:22N 44°18' E 008°29'2 2.8
2016-Aug-22 08:32N 44°17' E 008°28'0 0.1
2016-Aug-22 07:29N 44°16' E 008°28'1 0.9
2016-Aug-22 06:27N 44°16' E 008°28'3 3.1
2016-Aug-22 05:33N 44°18' E 008°30'1 1.0
2016-Aug-22 04:33N 44°19' E 008°31'1 0.9
2016-Aug-22 03:30N 44°18' E 008°29'0 0.0
2016-Aug-22 02:30N 44°18' E 008°29'0 0.0
2016-Aug-22 01:30N 44°18' E 008°29'0 0.0
2016-Aug-22 00:30N 44°18' E 008°29'0 0.0
2016-Aug-21 23:30N 44°18' E 008°29'0 0.0
2016-Aug-21 22:30N 44°18' E 008°29'0 0.0
2016-Aug-21 21:30N 44°18' E 008°29'0 0.0
2016-Aug-21 20:33N 44°18' E 008°29'0 0.0
2016-Aug-21 13:28N 44°18' E 008°29'0 0.0
2016-Aug-21 12:31N 44°18' E 008°29'0 0.0
2016-Aug-21 11:31N 44°18' E 008°29'0 0.0
2016-Aug-21 10:31N 44°18' E 008°29'0 0.0
2016-Aug-21 09:31N 44°18' E 008°29'0 0.0
2016-Aug-21 08:31N 44°18' E 008°29'0 0.0
2016-Aug-21 07:22N 44°18' E 008°29'0 0.0
2016-Aug-21 06:28N 44°18' E 008°29'0 0.0
2016-Aug-21 05:28N 44°18' E 008°29'0 0.0
2016-Aug-21 04:28N 44°18' E 008°29'0 0.0
2016-Aug-20 08:24N 44°18' E 008°29'0 0.0
2016-Aug-20 07:30N 44°18' E 008°29'0 0.0
2016-Aug-20 06:30N 44°18' E 008°29'0 0.0
2016-Aug-20 05:30N 44°18' E 008°29'0 0.0
2016-Aug-20 04:33N 44°18' E 008°29'0 0.0
2016-Aug-20 03:33N 44°18' E 008°29'0 0.0
2016-Aug-20 02:30N 44°18' E 008°29'0 0.0
2016-Aug-20 01:30N 44°18' E 008°29'0 0.0
2016-Aug-20 00:33N 44°18' E 008°29'0 0.0
2016-Aug-19 23:30N 44°18' E 008°29'0 0.0
2016-Aug-19 22:30N 44°18' E 008°29'0 0.0
2016-Aug-19 21:30N 44°18' E 008°29'0 0.0
2016-Aug-19 20:30N 44°18' E 008°29'0 0.0
2016-Aug-19 19:30N 44°18' E 008°29'0 0.0
2016-Aug-19 18:30N 44°18' E 008°29'0 0.0
2016-Aug-19 17:30N 44°18' E 008°29'0 0.0
2016-Aug-19 16:30N 44°18' E 008°29'0 0.5
2016-Aug-19 15:33N 44°19' E 008°30'0 0.1
2016-Aug-19 12:17N 44°18' E 008°29'0 0.0
2016-Aug-19 11:09N 44°18' E 008°29'0 0.0
2016-Aug-19 05:29N 44°18' E 008°29'1 0.9
2016-Aug-19 04:33N 44°19' E 008°30'1 0.1
2016-Aug-18 17:32N 44°18' E 008°29'0 0.0
2016-Aug-18 16:32N 44°18' E 008°29'0 0.0
2016-Aug-18 15:32N 44°18' E 008°29'0 0.0
2016-Aug-18 14:34N 44°19' E 008°29'3 3.1
2016-Aug-18 13:34N 44°16' E 008°27'3 2.9
2016-Aug-18 12:31N 44°18' E 008°29'0 0.0
2016-Aug-18 11:31N 44°18' E 008°29'1 0.5
2016-Aug-18 10:31N 44°19' E 008°30'1 0.5
2016-Aug-18 09:22N 44°18' E 008°29'0 0.0
2016-Aug-18 08:31N 44°18' E 008°29'0 0.0
2016-Aug-18 07:31N 44°18' E 008°29'1 0.7
2016-Aug-18 06:33N 44°19' E 008°30'4 3.6
2016-Aug-18 05:34N 44°16' E 008°27'1 1.1
2016-Aug-18 04:34N 44°17' E 008°28'2 0.3
2016-Aug-17 21:33N 44°18' E 008°29'0 0.0
2016-Aug-17 20:30N 44°18' E 008°29'0 0.0
2016-Aug-17 19:30N 44°18' E 008°29'0 0.0
2016-Aug-17 18:30N 44°18' E 008°29'0 0.0
2016-Aug-17 17:30N 44°18' E 008°29'0 0.0
2016-Aug-17 16:30N 44°18' E 008°29'0 0.0
2016-Aug-17 14:19N 44°18' E 008°29'0 0.0
2016-Aug-17 13:31N 44°18' E 008°29'0 0.0
2016-Aug-17 12:31N 44°18' E 008°29'0 0.0
2016-Aug-17 07:28N 44°18' E 008°29'0 0.0
2016-Aug-17 06:19N 44°18' E 008°29'0 0.0
2016-Aug-17 05:31N 44°18' E 008°29'0 0.0
2016-Aug-17 04:31N 44°18' E 008°29'0 0.0
2016-Aug-17 03:31N 44°18' E 008°29'0 0.0
2016-Aug-17 02:31N 44°18' E 008°29'0 0.0
2016-Aug-17 01:31N 44°18' E 008°29'0 0.0
2016-Aug-17 00:34N 44°18' E 008°29'0 0.0
2016-Aug-16 23:34N 44°18' E 008°29'0 0.0
2016-Aug-16 22:31N 44°18' E 008°29'0 0.0
2016-Aug-16 21:31N 44°18' E 008°29'0 0.0
2016-Aug-16 17:31N 44°18' E 008°29'0 0.0
2016-Aug-16 16:31N 44°18' E 008°29'0 0.0
2016-Aug-16 15:31N 44°18' E 008°29'0 0.0
2016-Aug-16 14:31N 44°18' E 008°29'0 0.0
2016-Aug-16 13:28N 44°18' E 008°29'0 0.0
2016-Aug-16 12:22N 44°18' E 008°29'0 0.0
2016-Aug-16 11:28N 44°18' E 008°29'0 0.0
2016-Aug-16 10:28N 44°18' E 008°29'0 0.0
2016-Aug-16 09:29N 44°18' E 008°29'1 1.0
2016-Aug-16 08:32N 44°19' E 008°31'1 0.5
2016-Aug-16 07:33N 44°19' E 008°30'1 0.2
2016-Aug-16 04:32N 44°18' E 008°29'  

Dump ship's entire track history